createdAt,value
2018-08-18T00:00:48.036Z,4.30
2018-08-18T00:01:48.057Z,3.70
2018-08-18T00:02:48.091Z,4.50
2018-08-18T00:03:48.102Z,3.60
2018-08-18T00:04:48.124Z,4.00
2018-08-18T00:05:48.148Z,4.10
2018-08-18T00:06:48.170Z,3.50
2018-08-18T00:07:48.197Z,7.40
2018-08-18T00:08:48.215Z,4.60
2018-08-18T00:09:48.234Z,4.10
2018-08-18T00:10:48.257Z,4.00
2018-08-18T00:11:48.329Z,4.10
2018-08-18T00:12:48.305Z,4.20
2018-08-18T00:13:48.324Z,3.80
2018-08-18T00:14:48.348Z,4.00
2018-08-18T00:15:48.368Z,4.90
2018-08-18T00:16:48.391Z,3.90
2018-08-18T00:17:48.413Z,4.10
2018-08-18T00:18:48.434Z,4.30
2018-08-18T00:19:48.460Z,5.70
2018-08-18T00:20:48.482Z,4.20
2018-08-18T00:21:48.500Z,4.10
2018-08-18T00:22:48.523Z,4.10
2018-08-18T00:23:48.548Z,3.40
2018-08-18T00:24:48.567Z,3.50
2018-08-18T00:25:48.592Z,3.90
2018-08-18T00:26:48.611Z,4.80
2018-08-18T00:27:48.637Z,4.00
2018-08-18T00:28:48.657Z,4.00
2018-08-18T00:29:48.681Z,4.20
2018-08-18T00:30:48.703Z,3.90
2018-08-18T00:31:48.726Z,4.40
2018-08-18T00:32:48.745Z,4.80
2018-08-18T00:33:48.768Z,7.90
2018-08-18T00:34:48.790Z,4.60
2018-08-18T00:35:48.813Z,4.70
2018-08-18T00:36:48.834Z,4.60
2018-08-18T00:37:48.855Z,5.40
2018-08-18T00:38:49.127Z,4.60
2018-08-18T00:39:48.904Z,5.30
2018-08-18T00:40:48.924Z,5.00
2018-08-18T00:41:48.942Z,6.30
2018-08-18T00:42:48.964Z,5.50
2018-08-18T00:43:48.989Z,4.10
2018-08-18T00:44:49.010Z,4.10
2018-08-18T00:45:49.032Z,4.10
2018-08-18T00:46:49.052Z,4.20
2018-08-18T00:47:49.075Z,4.30
2018-08-18T00:48:49.097Z,4.70
2018-08-18T00:49:49.118Z,4.60
2018-08-18T00:50:49.140Z,4.60
2018-08-18T00:51:49.165Z,4.40
2018-08-18T00:52:49.185Z,5.30
2018-08-18T00:53:49.213Z,4.70
2018-08-18T00:54:49.232Z,4.40
2018-08-18T00:55:49.253Z,5.10
2018-08-18T00:56:49.274Z,4.90
2018-08-18T00:57:49.293Z,6.30
2018-08-18T00:58:49.316Z,4.40
2018-08-18T00:59:49.339Z,4.70
2018-08-18T01:00:49.362Z,5.50
2018-08-18T01:01:49.385Z,5.20
2018-08-18T01:02:49.412Z,4.90
2018-08-18T01:03:49.429Z,5.70
2018-08-18T01:04:49.447Z,5.20
2018-08-18T01:05:49.472Z,5.10
2018-08-18T01:06:49.493Z,5.50
2018-08-18T01:07:49.513Z,9.40
2018-08-18T01:08:49.538Z,4.90
2018-08-18T01:09:49.557Z,5.70
2018-08-18T01:10:49.655Z,5.20
2018-08-18T01:11:49.811Z,5.00
2018-08-18T01:12:49.657Z,4.70
2018-08-18T01:13:49.774Z,5.70
2018-08-18T01:14:49.698Z,4.90
2018-08-18T01:15:49.721Z,5.40
2018-08-18T01:16:49.713Z,5.10
2018-08-18T01:17:49.731Z,5.30
2018-08-18T01:18:49.756Z,5.10
2018-08-18T01:19:49.778Z,5.10
2018-08-18T01:20:49.798Z,5.80
2018-08-18T01:21:49.821Z,5.70
2018-08-18T01:22:49.842Z,4.70
2018-08-18T01:23:49.866Z,4.80
2018-08-18T01:24:49.888Z,5.30
2018-08-18T01:25:49.908Z,5.60
2018-08-18T01:26:49.931Z,5.00
2018-08-18T01:27:49.954Z,5.80
2018-08-18T01:28:49.976Z,5.40
2018-08-18T01:29:49.993Z,5.90
2018-08-18T01:30:50.021Z,5.80
2018-08-18T01:31:50.036Z,6.00
2018-08-18T01:32:50.060Z,6.00
2018-08-18T01:33:50.078Z,5.50
2018-08-18T01:34:50.105Z,5.70
2018-08-18T01:35:50.124Z,6.10
2018-08-18T01:36:50.149Z,5.20
2018-08-18T01:37:50.167Z,5.30
2018-08-18T01:38:50.639Z,5.50
2018-08-18T01:39:50.211Z,6.00
2018-08-18T01:40:50.231Z,6.40
2018-08-18T01:41:50.252Z,6.30
2018-08-18T01:42:50.276Z,6.10
2018-08-18T01:43:50.389Z,6.50
2018-08-18T01:44:50.317Z,5.70
2018-08-18T01:45:50.342Z,6.00
2018-08-18T01:46:50.362Z,6.10
2018-08-18T01:47:50.381Z,6.10
2018-08-18T01:48:50.402Z,6.50
2018-08-18T01:49:50.427Z,6.50
2018-08-18T01:50:50.448Z,6.40
2018-08-18T01:51:50.467Z,6.00
2018-08-18T01:52:50.492Z,6.50
2018-08-18T01:53:50.513Z,6.20
2018-08-18T01:54:50.532Z,6.90
2018-08-18T01:55:50.659Z,6.50
2018-08-18T01:56:50.578Z,6.20
2018-08-18T01:57:50.595Z,6.00
2018-08-18T01:58:50.620Z,5.90
2018-08-18T01:59:50.639Z,5.70
2018-08-18T02:00:50.661Z,6.20
2018-08-18T02:01:50.681Z,6.10
2018-08-18T02:02:50.703Z,6.20
2018-08-18T02:03:50.729Z,5.90
2018-08-18T02:04:50.750Z,6.30
2018-08-18T02:05:50.768Z,6.40
2018-08-18T02:06:50.790Z,6.10
2018-08-18T02:07:50.814Z,6.30
2018-08-18T02:08:50.831Z,5.70
2018-08-18T02:09:50.854Z,6.50
2018-08-18T02:10:50.878Z,5.90
2018-08-18T02:11:50.898Z,6.30
2018-08-18T02:12:50.919Z,6.30
2018-08-18T02:13:50.939Z,6.40
2018-08-18T02:14:50.963Z,6.60
2018-08-18T02:15:50.983Z,5.90
2018-08-18T02:16:51.008Z,6.60
2018-08-18T02:17:51.029Z,6.70
2018-08-18T02:18:51.050Z,6.10
2018-08-18T02:19:51.099Z,6.80
2018-08-18T02:20:51.093Z,6.80
2018-08-18T02:21:51.110Z,7.20
2018-08-18T02:22:51.136Z,6.30
2018-08-18T02:23:51.157Z,6.20
2018-08-18T02:24:51.178Z,6.30
2018-08-18T02:25:51.197Z,6.60
2018-08-18T02:26:51.220Z,6.90
2018-08-18T02:27:51.241Z,6.30
2018-08-18T02:28:51.265Z,6.10
2018-08-18T02:29:51.283Z,7.30
2018-08-18T02:30:51.304Z,6.50
2018-08-18T02:31:51.328Z,6.70
2018-08-18T02:32:51.348Z,6.40
2018-08-18T02:33:51.370Z,6.60
2018-08-18T02:34:51.392Z,6.50
2018-08-18T02:35:51.411Z,6.50
2018-08-18T02:36:51.433Z,6.80
2018-08-18T02:37:51.453Z,6.10
2018-08-18T02:38:51.477Z,6.70
2018-08-18T02:39:51.500Z,6.60
2018-08-18T02:40:51.522Z,6.30
2018-08-18T02:41:51.542Z,7.10
2018-08-18T02:42:51.567Z,7.30
2018-08-18T02:43:51.584Z,8.20
2018-08-18T02:44:51.605Z,6.90
2018-08-18T02:45:51.624Z,6.40
2018-08-18T02:46:51.648Z,5.80
2018-08-18T02:47:51.668Z,6.40
2018-08-18T02:48:51.690Z,6.50
2018-08-18T02:49:51.713Z,6.40
2018-08-18T02:50:51.734Z,6.20
2018-08-18T02:51:51.757Z,6.30
2018-08-18T02:52:51.779Z,6.50
2018-08-18T02:53:51.798Z,6.20
2018-08-18T02:54:51.817Z,5.70
2018-08-18T02:55:52.741Z,5.80
2018-08-18T02:56:51.862Z,5.90
2018-08-18T02:57:51.881Z,6.10
2018-08-18T02:58:51.908Z,6.80
2018-08-18T02:59:51.928Z,6.60
2018-08-18T03:00:51.949Z,6.80
2018-08-18T03:01:51.969Z,7.10
2018-08-18T03:02:51.988Z,6.90
2018-08-18T03:03:52.010Z,7.20
2018-08-18T03:04:52.031Z,6.50
2018-08-18T03:05:52.056Z,6.70
2018-08-18T03:06:52.076Z,6.60
2018-08-18T03:07:52.137Z,6.20
2018-08-18T03:08:52.121Z,5.90
2018-08-18T03:09:52.139Z,6.60
2018-08-18T03:10:52.162Z,6.30
2018-08-18T03:11:52.185Z,5.60
2018-08-18T03:12:52.203Z,6.10
2018-08-18T03:13:52.223Z,5.60
2018-08-18T03:14:52.246Z,5.90
2018-08-18T03:15:52.269Z,6.40
2018-08-18T03:16:52.290Z,6.20
2018-08-18T03:17:52.310Z,6.40
2018-08-18T03:18:52.328Z,6.20
2018-08-18T03:19:52.349Z,6.30
2018-08-18T03:20:52.371Z,6.20
2018-08-18T03:21:52.394Z,9.00
2018-08-18T03:22:52.415Z,6.70
2018-08-18T03:23:52.434Z,6.60
2018-08-18T03:24:52.458Z,7.20
2018-08-18T03:25:52.478Z,6.60
2018-08-18T03:26:52.507Z,6.40
2018-08-18T03:27:52.520Z,5.90
2018-08-18T03:28:52.559Z,6.10
2018-08-18T03:29:52.565Z,5.80
2018-08-18T03:30:52.584Z,7.10
2018-08-18T03:31:52.604Z,6.10
2018-08-18T03:32:52.622Z,6.30
2018-08-18T03:33:52.645Z,6.60
2018-08-18T03:34:52.666Z,7.10
2018-08-18T03:35:52.685Z,7.10
2018-08-18T03:36:52.708Z,6.90
2018-08-18T03:37:52.726Z,6.30
2018-08-18T03:38:52.750Z,7.40
2018-08-18T03:39:52.772Z,6.90
2018-08-18T03:40:52.789Z,6.80
2018-08-18T03:41:52.812Z,6.20
2018-08-18T03:42:52.830Z,7.10
2018-08-18T03:43:52.856Z,6.40
2018-08-18T03:44:52.874Z,7.10
2018-08-18T03:45:52.895Z,6.20
2018-08-18T03:46:52.914Z,6.70
2018-08-18T03:47:52.938Z,6.50
2018-08-18T03:48:52.959Z,6.90
2018-08-18T03:49:52.979Z,7.10
2018-08-18T03:50:53.000Z,6.40
2018-08-18T03:51:53.023Z,6.00
2018-08-18T03:52:53.042Z,6.70
2018-08-18T03:53:53.060Z,6.50
2018-08-18T03:54:53.083Z,6.60
2018-08-18T03:55:53.106Z,6.20
2018-08-18T03:56:53.124Z,6.20
2018-08-18T03:57:53.146Z,6.30
2018-08-18T03:58:53.164Z,6.70
2018-08-18T03:59:53.189Z,6.50
2018-08-18T04:00:53.206Z,6.00
2018-08-18T04:01:53.247Z,6.70
2018-08-18T04:02:53.249Z,6.10
2018-08-18T04:03:53.270Z,6.30
2018-08-18T04:04:53.292Z,5.60
2018-08-18T04:05:53.310Z,6.50
2018-08-18T04:06:53.330Z,7.30
2018-08-18T04:07:53.354Z,6.40
2018-08-18T04:08:53.375Z,6.10
2018-08-18T04:09:53.395Z,6.90
2018-08-18T04:10:53.414Z,6.50
2018-08-18T04:11:53.436Z,6.20
2018-08-18T04:12:53.457Z,6.40
2018-08-18T04:13:53.478Z,6.30
2018-08-18T04:14:53.497Z,6.60
2018-08-18T04:15:53.520Z,6.00
2018-08-18T04:16:53.539Z,6.40
2018-08-18T04:17:53.560Z,6.50
2018-08-18T04:18:53.632Z,6.00
2018-08-18T04:19:53.601Z,6.30
2018-08-18T04:20:53.625Z,6.60
2018-08-18T04:21:53.644Z,6.20
2018-08-18T04:22:53.663Z,6.80
2018-08-18T04:23:53.687Z,6.50
2018-08-18T04:24:53.707Z,6.10
2018-08-18T04:25:53.729Z,6.80
2018-08-18T04:26:53.750Z,6.80
2018-08-18T04:27:53.769Z,6.20
2018-08-18T04:28:53.792Z,7.60
2018-08-18T04:29:53.809Z,6.90
2018-08-18T04:30:53.830Z,7.40
2018-08-18T04:31:53.851Z,7.50
2018-08-18T04:32:53.878Z,6.90
2018-08-18T04:33:53.896Z,7.00
2018-08-18T04:34:53.917Z,7.10
2018-08-18T04:35:53.935Z,7.40
2018-08-18T04:36:53.959Z,7.40
2018-08-18T04:37:53.976Z,7.80
2018-08-18T04:38:53.998Z,7.70
2018-08-18T04:39:54.022Z,7.50
2018-08-18T04:40:54.044Z,7.90
2018-08-18T04:41:54.062Z,7.20
2018-08-18T04:42:54.082Z,7.90
2018-08-18T04:43:54.152Z,7.60
2018-08-18T04:44:54.123Z,8.10
2018-08-18T04:45:54.144Z,7.80
2018-08-18T04:46:54.164Z,8.40
2018-08-18T04:47:54.187Z,8.30
2018-08-18T04:48:54.207Z,7.90
2018-08-18T04:49:54.230Z,8.70
2018-08-18T04:50:54.248Z,7.50
2018-08-18T04:51:54.273Z,8.90
2018-08-18T04:52:54.294Z,8.30
2018-08-18T04:53:54.314Z,8.60
2018-08-18T04:54:54.333Z,8.60
2018-08-18T04:55:54.356Z,8.80
2018-08-18T04:56:54.384Z,9.00
2018-08-18T04:57:54.394Z,8.40
2018-08-18T04:58:54.416Z,8.90
2018-08-18T04:59:54.442Z,7.30
2018-08-18T05:00:54.475Z,8.30
2018-08-18T05:01:54.478Z,8.90
2018-08-18T05:02:54.506Z,8.30
2018-08-18T05:03:54.523Z,8.10
2018-08-18T05:04:54.541Z,8.80
2018-08-18T05:05:54.564Z,8.30
2018-08-18T05:06:54.584Z,9.20
2018-08-18T05:07:54.608Z,8.00
2018-08-18T05:08:54.683Z,8.50
2018-08-18T05:09:54.648Z,8.80
2018-08-18T05:10:54.671Z,8.70
2018-08-18T05:11:54.688Z,9.40
2018-08-18T05:12:54.710Z,8.70
2018-08-18T05:13:54.728Z,9.60
2018-08-18T05:14:54.749Z,8.90
2018-08-18T05:15:54.775Z,8.80
2018-08-18T05:16:54.795Z,8.70
2018-08-18T05:17:54.815Z,8.50
2018-08-18T05:18:54.868Z,8.80
2018-08-18T05:19:54.854Z,9.30
2018-08-18T05:20:54.876Z,8.70
2018-08-18T05:21:54.896Z,9.10
2018-08-18T05:22:54.920Z,9.70
2018-08-18T05:23:54.940Z,8.40
2018-08-18T05:24:54.963Z,8.40
2018-08-18T05:25:54.980Z,9.10
2018-08-18T05:26:55.002Z,8.90
2018-08-18T05:27:55.024Z,9.50
2018-08-18T05:28:55.047Z,8.40
2018-08-18T05:29:55.063Z,8.40
2018-08-18T05:30:55.085Z,8.80
2018-08-18T05:31:55.110Z,8.80
2018-08-18T05:32:55.129Z,8.50
2018-08-18T05:33:55.151Z,8.90
2018-08-18T05:34:55.172Z,8.60
2018-08-18T05:35:55.194Z,8.60
2018-08-18T05:36:55.213Z,9.10
2018-08-18T05:37:55.233Z,9.60
2018-08-18T05:38:55.258Z,9.20
2018-08-18T05:39:55.279Z,8.90
2018-08-18T05:40:55.301Z,8.70
2018-08-18T05:41:55.321Z,7.80
2018-08-18T05:42:55.376Z,9.30
2018-08-18T05:43:55.362Z,8.70
2018-08-18T05:44:55.386Z,8.40
2018-08-18T05:45:55.408Z,8.60
2018-08-18T05:46:55.430Z,8.20
2018-08-18T05:47:55.452Z,7.50
2018-08-18T05:48:55.472Z,8.30
2018-08-18T05:49:55.495Z,8.00
2018-08-18T05:50:55.517Z,8.60
2018-08-18T05:51:55.541Z,7.70
2018-08-18T05:52:55.557Z,8.30
2018-08-18T05:53:55.581Z,8.70
2018-08-18T05:54:55.646Z,7.80
2018-08-18T05:55:55.625Z,7.60
2018-08-18T05:56:55.647Z,8.40
2018-08-18T05:57:55.668Z,8.90
2018-08-18T05:58:55.689Z,8.70
2018-08-18T05:59:55.710Z,8.10
2018-08-18T06:00:55.732Z,8.70
2018-08-18T06:01:55.752Z,9.00
2018-08-18T06:02:55.775Z,8.30
2018-08-18T06:03:55.795Z,9.40
2018-08-18T06:04:55.817Z,8.50
2018-08-18T06:05:55.838Z,8.50
2018-08-18T06:06:55.859Z,8.70
2018-08-18T06:07:55.881Z,8.50
2018-08-18T06:08:55.906Z,8.90
2018-08-18T06:09:55.925Z,8.80
2018-08-18T06:10:55.945Z,8.60
2018-08-18T06:11:55.994Z,8.90
2018-08-18T06:12:55.992Z,9.00
2018-08-18T06:13:56.012Z,8.80
2018-08-18T06:14:56.035Z,9.40
2018-08-18T06:15:56.053Z,8.50
2018-08-18T06:16:56.078Z,9.00
2018-08-18T06:17:56.098Z,8.60
2018-08-18T06:18:56.117Z,9.30
2018-08-18T06:19:56.143Z,8.70
2018-08-18T06:20:56.163Z,9.00
2018-08-18T06:21:56.182Z,8.70
2018-08-18T06:22:56.203Z,8.50
2018-08-18T06:23:56.226Z,9.90
2018-08-18T06:24:56.251Z,8.60
2018-08-18T06:25:56.269Z,9.50
2018-08-18T06:26:56.291Z,8.90
2018-08-18T06:27:56.313Z,9.50
2018-08-18T06:28:56.335Z,9.50
2018-08-18T06:29:56.357Z,8.20
2018-08-18T06:30:56.379Z,7.80
2018-08-18T06:31:56.400Z,8.50
2018-08-18T06:32:56.423Z,9.20
2018-08-18T06:33:56.447Z,9.00
2018-08-18T06:34:56.603Z,8.70
2018-08-18T06:35:56.497Z,8.20
2018-08-18T06:36:56.511Z,8.40
2018-08-18T06:37:56.535Z,8.20
2018-08-18T06:38:56.554Z,8.20
2018-08-18T06:39:56.577Z,8.50
2018-08-18T06:40:56.637Z,9.20
2018-08-18T06:41:56.747Z,8.70
2018-08-18T06:42:56.645Z,9.10
2018-08-18T06:43:56.668Z,9.10
2018-08-18T06:44:56.687Z,8.20
2018-08-18T06:45:56.711Z,8.60
2018-08-18T06:46:56.734Z,8.30
2018-08-18T06:47:56.756Z,9.20
2018-08-18T06:48:56.783Z,9.20
2018-08-18T06:49:56.799Z,10.30
2018-08-18T06:50:56.823Z,9.10
2018-08-18T06:51:56.845Z,9.10
2018-08-18T06:52:56.868Z,8.70
2018-08-18T06:53:56.889Z,9.00
2018-08-18T06:54:57.083Z,9.10
2018-08-18T06:55:56.937Z,9.40
2018-08-18T06:56:56.962Z,11.10
2018-08-18T06:57:56.979Z,8.60
2018-08-18T06:58:56.999Z,9.10
2018-08-18T06:59:57.025Z,8.70
2018-08-18T07:00:57.046Z,8.80
2018-08-18T07:01:57.067Z,8.20
2018-08-18T07:02:57.091Z,8.20
2018-08-18T07:03:57.111Z,9.50
2018-08-18T07:04:57.135Z,9.40
2018-08-18T07:05:57.188Z,10.60
2018-08-18T07:06:57.179Z,9.90
2018-08-18T07:07:57.204Z,9.50
2018-08-18T07:08:57.223Z,9.50
2018-08-18T07:09:57.249Z,9.60
2018-08-18T07:10:57.268Z,9.20
2018-08-18T07:11:57.291Z,9.60
2018-08-18T07:12:57.316Z,10.00
2018-08-18T07:13:57.339Z,9.30
2018-08-18T07:14:57.359Z,9.00
2018-08-18T07:15:57.385Z,8.80
2018-08-18T07:16:57.404Z,8.80
2018-08-18T07:17:57.432Z,9.20
2018-08-18T07:18:57.449Z,8.50
2018-08-18T07:19:57.472Z,8.70
2018-08-18T07:20:57.495Z,9.80
2018-08-18T07:21:57.516Z,8.00
2018-08-18T07:22:57.540Z,8.70
2018-08-18T07:23:57.563Z,8.40
2018-08-18T07:24:57.588Z,7.80
2018-08-18T07:25:57.611Z,7.90
2018-08-18T07:26:57.634Z,8.30
2018-08-18T07:27:57.657Z,8.20
2018-08-18T07:28:57.795Z,7.90
2018-08-18T07:29:57.701Z,7.90
2018-08-18T07:30:57.721Z,7.40
2018-08-18T07:31:57.745Z,8.50
2018-08-18T07:32:57.769Z,7.70
2018-08-18T07:33:57.792Z,7.30
2018-08-18T07:34:57.817Z,6.10
2018-08-18T07:35:57.840Z,6.60
2018-08-18T07:36:57.863Z,6.50
2018-08-18T07:37:57.885Z,6.40
2018-08-18T07:38:57.964Z,6.70
2018-08-18T07:39:57.932Z,5.70
2018-08-18T07:40:57.954Z,5.60
2018-08-18T07:41:57.976Z,5.60
2018-08-18T07:42:57.998Z,6.00
2018-08-18T07:43:58.036Z,6.50
2018-08-18T07:44:58.044Z,6.20
2018-08-18T07:45:58.073Z,6.50
2018-08-18T07:46:58.093Z,6.30
2018-08-18T07:47:58.118Z,6.20
2018-08-18T07:48:58.139Z,6.20
2018-08-18T07:49:58.160Z,6.40
2018-08-18T07:50:58.187Z,6.30
2018-08-18T07:51:58.208Z,5.50
2018-08-18T07:52:58.273Z,5.70
2018-08-18T07:53:58.257Z,5.50
2018-08-18T07:54:58.278Z,5.60
2018-08-18T07:55:58.304Z,5.60
2018-08-18T07:56:58.328Z,4.60
2018-08-18T07:57:58.350Z,5.40
2018-08-18T07:58:58.372Z,5.40
2018-08-18T07:59:58.400Z,5.10
2018-08-18T08:00:58.422Z,4.50
2018-08-18T08:01:58.443Z,5.20
2018-08-18T08:02:58.466Z,4.60
2018-08-18T08:03:58.491Z,4.80
2018-08-18T08:04:58.547Z,4.70
2018-08-18T08:05:58.539Z,4.80
2018-08-18T08:06:58.561Z,4.90
2018-08-18T08:07:58.585Z,4.80
2018-08-18T08:08:58.617Z,4.60
2018-08-18T08:09:58.633Z,4.50
2018-08-18T08:10:58.656Z,3.70
2018-08-18T08:11:58.686Z,4.80
2018-08-18T08:12:58.739Z,5.00
2018-08-18T08:13:58.728Z,4.00
2018-08-18T08:14:58.751Z,4.60
2018-08-18T08:15:58.779Z,4.20
2018-08-18T08:16:58.804Z,5.00
2018-08-18T08:17:58.821Z,4.40
2018-08-18T08:18:58.846Z,4.40
2018-08-18T08:19:58.873Z,4.10
2018-08-18T08:20:58.896Z,4.40
2018-08-18T08:21:58.917Z,4.20
2018-08-18T08:22:58.942Z,5.00
2018-08-18T08:23:58.968Z,4.80
2018-08-18T08:24:58.988Z,4.70
2018-08-18T08:25:59.012Z,3.80
2018-08-18T08:26:59.039Z,3.90
2018-08-18T08:27:59.060Z,4.40
2018-08-18T08:28:59.085Z,3.90
2018-08-18T08:29:59.109Z,3.70
2018-08-18T08:30:59.133Z,4.10
2018-08-18T08:31:59.156Z,4.00
2018-08-18T08:32:59.181Z,3.70
2018-08-18T08:33:59.207Z,3.90
2018-08-18T08:34:59.228Z,3.80
2018-08-18T08:35:59.256Z,4.30
2018-08-18T08:36:59.279Z,3.90
2018-08-18T08:37:59.301Z,4.20
2018-08-18T08:38:59.328Z,4.40
2018-08-18T08:39:59.352Z,3.90
2018-08-18T08:40:59.373Z,3.70
2018-08-18T08:41:59.399Z,4.90
2018-08-18T08:42:59.425Z,4.20
2018-08-18T08:43:59.449Z,3.60
2018-08-18T08:44:59.474Z,4.10
2018-08-18T08:45:59.494Z,3.50
2018-08-18T08:46:59.521Z,3.20
2018-08-18T08:47:59.543Z,3.70
2018-08-18T08:48:59.660Z,3.40
2018-08-18T08:49:59.591Z,2.80
2018-08-18T08:50:59.666Z,3.70
2018-08-18T08:51:59.643Z,2.90
2018-08-18T08:52:59.665Z,3.40
2018-08-18T08:53:59.690Z,3.90
2018-08-18T08:54:59.714Z,3.10
2018-08-18T08:55:59.740Z,3.30
2018-08-18T08:56:59.764Z,3.40
2018-08-18T08:57:59.791Z,3.70
2018-08-18T08:58:59.864Z,2.90
2018-08-18T08:59:59.836Z,3.20
2018-08-18T09:00:59.860Z,3.10
2018-08-18T09:01:59.888Z,3.40
2018-08-18T09:02:59.916Z,2.70
2018-08-18T09:03:59.937Z,3.60
2018-08-18T09:04:59.959Z,3.80
2018-08-18T09:05:59.984Z,3.80
2018-08-18T09:07:00.009Z,3.90
2018-08-18T09:08:00.036Z,3.40
2018-08-18T09:09:00.060Z,3.50
2018-08-18T09:10:00.083Z,3.30
2018-08-18T09:11:00.108Z,3.30
2018-08-18T09:12:00.133Z,3.70
2018-08-18T09:13:00.158Z,3.20
2018-08-18T09:14:00.185Z,2.90
2018-08-18T09:15:00.207Z,3.00
2018-08-18T09:16:00.236Z,3.40
2018-08-18T09:17:00.264Z,3.10
2018-08-18T09:18:00.285Z,3.00
2018-08-18T09:19:00.306Z,3.00
2018-08-18T09:20:00.382Z,3.10
2018-08-18T09:21:00.358Z,3.70
2018-08-18T09:22:00.385Z,3.10
2018-08-18T09:23:00.411Z,3.20
2018-08-18T09:24:00.435Z,3.10
2018-08-18T09:25:00.460Z,2.90
2018-08-18T09:26:00.507Z,2.40
2018-08-18T09:27:00.507Z,2.90
2018-08-18T09:28:00.536Z,3.30
2018-08-18T09:29:00.558Z,2.60
2018-08-18T09:30:00.592Z,3.10
2018-08-18T09:31:00.613Z,2.90
2018-08-18T09:32:00.635Z,3.20
2018-08-18T09:33:00.661Z,3.00
2018-08-18T09:34:00.685Z,3.80
2018-08-18T09:35:00.708Z,3.80
2018-08-18T09:36:00.736Z,3.40
2018-08-18T09:37:00.759Z,3.30
2018-08-18T09:38:00.788Z,3.80
2018-08-18T09:39:00.812Z,3.10
2018-08-18T09:40:00.837Z,4.00
2018-08-18T09:41:00.861Z,3.70
2018-08-18T09:42:00.887Z,6.10
2018-08-18T09:43:00.910Z,4.00
2018-08-18T09:44:00.935Z,4.10
2018-08-18T09:45:00.963Z,5.90
2018-08-18T09:46:00.987Z,15.70
2018-08-18T09:47:01.012Z,3.30
2018-08-18T09:48:01.039Z,5.90
2018-08-18T09:49:01.064Z,4.40
2018-08-18T09:50:01.090Z,3.20
2018-08-18T09:51:01.113Z,3.00
2018-08-18T09:52:01.142Z,3.20
2018-08-18T09:53:01.165Z,4.50
2018-08-18T09:54:01.190Z,3.30
2018-08-18T09:55:01.214Z,4.10
2018-08-18T09:56:01.247Z,3.90
2018-08-18T09:57:01.297Z,4.60
2018-08-18T09:58:01.288Z,3.00
2018-08-18T09:59:01.315Z,4.00
2018-08-18T10:00:01.643Z,4.10
2018-08-18T10:01:01.365Z,4.30
2018-08-18T10:02:01.398Z,3.60
2018-08-18T10:03:01.418Z,3.40
2018-08-18T10:04:01.644Z,3.60
2018-08-18T10:05:01.471Z,4.40
2018-08-18T10:06:01.490Z,5.00
2018-08-18T10:07:01.517Z,4.90
2018-08-18T10:08:01.542Z,3.80
2018-08-18T10:09:01.670Z,4.30
2018-08-18T10:10:01.595Z,4.30
2018-08-18T10:11:01.620Z,4.10
2018-08-18T10:12:01.646Z,4.90
2018-08-18T10:13:01.669Z,3.70
2018-08-18T10:14:01.696Z,4.40
2018-08-18T10:15:01.719Z,12.50
2018-08-18T10:16:01.748Z,6.60
2018-08-18T10:17:01.773Z,4.80
2018-08-18T10:18:01.799Z,6.70
2018-08-18T10:19:01.821Z,4.90
2018-08-18T10:20:01.847Z,5.10
2018-08-18T10:21:01.875Z,4.30
2018-08-18T10:22:01.896Z,4.70
2018-08-18T10:23:01.924Z,4.40
2018-08-18T10:24:01.951Z,4.20
2018-08-18T10:25:01.974Z,4.30
2018-08-18T10:26:02.000Z,4.20
2018-08-18T10:27:02.027Z,4.50
2018-08-18T10:28:02.049Z,4.40
2018-08-18T10:29:02.079Z,4.30
2018-08-18T10:30:02.104Z,4.70
2018-08-18T10:31:02.130Z,4.40
2018-08-18T10:32:02.156Z,5.40
2018-08-18T10:33:02.182Z,4.60
2018-08-18T10:34:02.207Z,5.80
2018-08-18T10:35:02.230Z,5.00
2018-08-18T10:36:02.256Z,5.10
2018-08-18T10:37:02.286Z,5.20
2018-08-18T10:38:02.308Z,4.60
2018-08-18T10:39:02.333Z,5.30
2018-08-18T10:40:02.361Z,5.30
2018-08-18T10:41:02.387Z,4.80
2018-08-18T10:42:02.422Z,5.10
2018-08-18T10:43:02.437Z,4.50
2018-08-18T10:44:02.464Z,4.80
2018-08-18T10:45:02.487Z,4.40
2018-08-18T10:46:02.515Z,4.50
2018-08-18T10:47:02.538Z,4.00
2018-08-18T10:48:02.565Z,4.40
2018-08-18T10:49:02.592Z,4.50
2018-08-18T10:50:02.615Z,4.10
2018-08-18T10:51:02.643Z,4.20
2018-08-18T10:52:02.668Z,3.80
2018-08-18T10:53:02.697Z,4.40
2018-08-18T10:54:02.718Z,4.30
2018-08-18T10:55:02.747Z,8.60
2018-08-18T10:56:02.769Z,9.60
2018-08-18T10:57:02.795Z,6.10
2018-08-18T10:58:02.831Z,6.40
2018-08-18T10:59:02.846Z,4.30
2018-08-18T11:00:02.878Z,5.70
2018-08-18T11:01:02.901Z,5.00
2018-08-18T11:02:02.928Z,4.90
2018-08-18T11:03:02.953Z,4.60
2018-08-18T11:04:03.089Z,4.00
2018-08-18T11:05:03.011Z,4.50
2018-08-18T11:06:03.031Z,4.60
2018-08-18T11:07:03.056Z,4.20
2018-08-18T11:08:03.086Z,4.40
2018-08-18T11:09:03.106Z,4.30
2018-08-18T11:10:03.134Z,5.00
2018-08-18T11:11:03.159Z,5.00
2018-08-18T11:12:03.184Z,4.00
2018-08-18T11:13:03.209Z,4.50
2018-08-18T11:14:03.237Z,4.30
2018-08-18T11:15:03.261Z,4.40
2018-08-18T11:16:03.290Z,3.80
2018-08-18T11:17:03.313Z,4.20
2018-08-18T11:18:03.345Z,4.40
2018-08-18T11:19:03.368Z,4.80
2018-08-18T11:20:03.396Z,5.40
2018-08-18T11:21:03.419Z,4.70
2018-08-18T11:22:03.448Z,4.50
2018-08-18T11:23:03.470Z,4.10
2018-08-18T11:24:03.495Z,5.10
2018-08-18T11:25:03.522Z,4.00
2018-08-18T11:26:03.546Z,4.60
2018-08-18T11:27:03.576Z,4.50
2018-08-18T11:28:03.598Z,4.90
2018-08-18T11:29:03.626Z,4.70
2018-08-18T11:30:03.653Z,4.70
2018-08-18T11:31:03.676Z,4.80
2018-08-18T11:32:03.705Z,4.20
2018-08-18T11:33:03.728Z,4.00
2018-08-18T11:34:03.754Z,3.40
2018-08-18T11:35:03.807Z,4.10
2018-08-18T11:36:03.814Z,3.30
2018-08-18T11:37:03.835Z,3.20
2018-08-18T11:38:03.860Z,3.90
2018-08-18T11:39:03.884Z,4.10
2018-08-18T11:40:03.913Z,4.70
2018-08-18T11:41:03.938Z,4.60
2018-08-18T11:42:03.964Z,4.00
2018-08-18T11:43:03.991Z,4.10
2018-08-18T11:44:04.017Z,3.60
2018-08-18T11:45:04.043Z,4.00
2018-08-18T11:46:04.070Z,3.80
2018-08-18T11:47:04.110Z,3.80
2018-08-18T11:48:04.119Z,3.50
2018-08-18T11:49:04.152Z,3.70
2018-08-18T11:50:04.174Z,4.30
2018-08-18T11:51:04.200Z,3.60
2018-08-18T11:52:04.225Z,4.10
2018-08-18T11:53:04.249Z,3.70
2018-08-18T11:54:04.276Z,3.10
2018-08-18T11:55:04.301Z,3.40
2018-08-18T11:56:04.327Z,3.30
2018-08-18T11:57:04.356Z,3.50
2018-08-18T11:58:04.381Z,3.20
2018-08-18T11:59:04.408Z,3.40
2018-08-18T12:00:04.434Z,3.40
2018-08-18T12:01:04.467Z,3.00
2018-08-18T12:02:04.500Z,3.20
2018-08-18T12:03:04.509Z,3.50
2018-08-18T12:04:04.539Z,3.10
2018-08-18T12:05:04.566Z,3.80
2018-08-18T12:06:04.591Z,2.70
2018-08-18T12:07:04.617Z,3.90
2018-08-18T12:08:04.640Z,3.80
2018-08-18T12:09:04.670Z,4.00
2018-08-18T12:10:04.692Z,6.00
2018-08-18T12:11:04.798Z,4.40
2018-08-18T12:12:04.750Z,3.20
2018-08-18T12:13:04.775Z,3.50
2018-08-18T12:14:04.801Z,3.10
2018-08-18T12:15:04.824Z,3.00
2018-08-18T12:16:04.850Z,2.70
2018-08-18T12:17:04.880Z,5.80
2018-08-18T12:18:04.906Z,6.90
2018-08-18T12:19:04.932Z,2.90
2018-08-18T12:20:04.959Z,3.30
2018-08-18T12:21:04.982Z,5.40
2018-08-18T12:22:05.011Z,3.30
2018-08-18T12:23:05.039Z,3.90
2018-08-18T12:24:05.067Z,3.60
2018-08-18T12:25:05.087Z,3.20
2018-08-18T12:26:05.118Z,4.00
2018-08-18T12:27:05.140Z,3.20
2018-08-18T12:28:05.171Z,3.50
2018-08-18T12:29:05.246Z,3.20
2018-08-18T12:30:05.276Z,4.50
2018-08-18T12:31:05.248Z,3.60
2018-08-18T12:32:05.275Z,5.80
2018-08-18T12:33:05.301Z,7.60
2018-08-18T12:34:05.333Z,6.60
2018-08-18T12:35:05.352Z,5.80
2018-08-18T12:36:05.382Z,6.90
2018-08-18T12:37:05.449Z,6.70
2018-08-18T12:38:05.430Z,4.00
2018-08-18T12:39:05.709Z,3.40
2018-08-18T12:40:05.481Z,2.90
2018-08-18T12:41:05.508Z,2.80
2018-08-18T12:42:05.585Z,2.70
2018-08-18T12:43:05.558Z,3.20
2018-08-18T12:44:05.589Z,3.20
2018-08-18T12:45:05.611Z,3.50
2018-08-18T12:46:05.639Z,3.00
2018-08-18T12:47:05.664Z,2.90
2018-08-18T12:48:06.241Z,3.10
2018-08-18T12:49:05.715Z,2.90
2018-08-18T12:50:05.886Z,3.50
2018-08-18T12:51:05.766Z,3.10
2018-08-18T12:52:05.792Z,2.90
2018-08-18T12:53:05.822Z,3.40
2018-08-18T12:54:05.847Z,2.80
2018-08-18T12:55:05.871Z,2.30
2018-08-18T12:56:05.897Z,2.70
2018-08-18T12:57:05.925Z,2.70
2018-08-18T12:58:05.970Z,2.70
2018-08-18T12:59:05.976Z,3.20
2018-08-18T13:00:06.004Z,2.90
2018-08-18T13:01:06.030Z,3.40
2018-08-18T13:02:06.052Z,2.60
2018-08-18T13:03:06.081Z,2.80
2018-08-18T13:04:06.108Z,2.50
2018-08-18T13:05:06.134Z,2.90
2018-08-18T13:06:06.159Z,3.00
2018-08-18T13:07:06.185Z,3.70
2018-08-18T13:08:06.210Z,3.60
2018-08-18T13:09:06.244Z,3.00
2018-08-18T13:10:06.264Z,2.20
2018-08-18T13:11:06.338Z,2.90
2018-08-18T13:12:06.313Z,2.90
2018-08-18T13:13:06.341Z,2.80
2018-08-18T13:14:06.368Z,2.50
2018-08-18T13:15:06.397Z,2.70
2018-08-18T13:16:06.422Z,3.10
2018-08-18T13:17:06.448Z,3.30
2018-08-18T13:18:06.474Z,2.60
2018-08-18T13:19:06.501Z,2.70